Time;durP1;ratioP1;P1;durP2;ratioP2;P2;SDS_P1;SDS_P2;PMS_P1;PMS_P2;Temp;Humidity;BMP_temperature;BMP_pressure;BME280_temperature;BME280_humidity;BME280_pressure;Samples;Min_cycle;Max_cycle;Signal;HPM_P1;HPM_P2
2022/02/19 00:01:54;;;;;;;5.25;1.50;;;8.20;57.60;;;;;;4954975;29;20047;-85
2022/02/19 00:04:20;;;;;;;13.38;2.30;;;8.20;56.90;;;;;;4953700;29;20023;-83
2022/02/19 00:06:46;;;;;;;6.47;2.55;;;8.20;57.30;;;;;;4954326;29;20484;-84
2022/02/19 00:09:13;;;;;;;13.73;2.38;;;8.20;56.60;;;;;;4954028;29;20030;-85
2022/02/19 00:11:40;;;;;;;5.32;2.30;;;8.20;56.80;;;;;;4954400;29;20039;-83
2022/02/19 00:14:06;;;;;;;8.80;2.25;;;8.20;57.30;;;;;;4954258;29;20031;-84
2022/02/19 00:16:32;;;;;;;4.88;2.55;;;8.10;57.80;;;;;;4953869;29;20058;-85
2022/02/19 00:18:58;;;;;;;4.40;2.42;;;8.10;57.40;;;;;;4955658;29;20481;-83
2022/02/19 00:21:24;;;;;;;5.30;2.22;;;8.20;56.90;;;;;;4953507;29;20054;-86
2022/02/19 00:23:51;;;;;;;4.20;1.95;;;8.10;57.30;;;;;;4954239;29;20046;-86
2022/02/19 00:26:17;;;;;;;4.90;2.22;;;8.20;56.60;;;;;;4953935;29;20035;-85
2022/02/19 00:28:44;;;;;;;5.72;2.20;;;8.10;57.30;;;;;;4969030;28;20036;-86
2022/02/19 00:31:10;;;;;;;11.18;2.75;;;8.00;57.30;;;;;;4954955;29;20054;-84
2022/02/19 00:33:36;;;;;;;5.50;1.92;;;8.10;57.50;;;;;;4954127;29;20031;-86
2022/02/19 00:36:02;;;;;;;11.98;2.35;;;8.20;56.50;;;;;;4964319;29;20046;-89
2022/02/19 00:38:29;;;;;;;4.38;1.65;;;8.10;57.30;;;;;;4958270;29;20052;-86
2022/02/19 00:40:56;;;;;;;9.52;2.25;;;8.00;57.90;;;;;;4955569;28;20042;-84
2022/02/19 00:43:24;;;;;;;9.82;1.52;;;7.90;57.30;;;;;;4959256;29;20031;-85
2022/02/19 00:45:51;;;;;;;9.00;2.35;;;8.00;57.40;;;;;;4957195;29;20076;-85
2022/02/19 00:48:17;;;;;;;10.38;2.25;;;8.10;57.60;;;;;;4957370;29;20027;-82
2022/02/19 00:50:45;;;;;;;8.18;2.58;;;8.10;56.90;;;;;;4957838;29;20239;-84
2022/02/19 00:53:12;;;;;;;8.88;2.60;;;8.20;57.40;;;;;;4956395;29;20055;-87
2022/02/19 00:55:39;;;;;;;7.30;2.85;;;8.10;57.80;;;;;;4972140;28;20385;-84
2022/02/19 00:58:05;;;;;;;4.18;2.28;;;8.20;57.40;;;;;;4958401;29;20042;-85
2022/02/19 01:00:31;;;;;;;5.68;2.13;;;8.20;57.80;;;;;;4968248;29;20011;-85
2022/02/19 01:03:09;;;;;;;5.40;2.13;;;8.20;57.80;;;;;;4975399;28;20050;-85
2022/02/19 01:05:36;;;;;;;5.03;2.35;;;8.20;58.10;;;;;;4976399;28;20031;-83
2022/02/19 01:08:03;;;;;;;6.07;2.58;;;8.20;57.60;;;;;;4966089;28;20024;-88
2022/02/19 01:10:31;;;;;;;3.70;1.77;;;8.20;58.50;;;;;;4942651;29;20039;-87
2022/02/19 01:12:58;;;;;;;7.28;2.13;;;8.10;58.60;;;;;;4958193;29;20023;-81
2022/02/19 01:15:25;;;;;;;4.05;1.77;;;8.10;58.40;;;;;;4957113;29;20066;-83
2022/02/19 01:17:53;;;;;;;7.15;2.55;;;8.10;58.00;;;;;;4957659;28;20035;-85
2022/02/19 01:20:20;;;;;;;5.25;2.00;;;8.10;57.60;;;;;;4956856;29;20050;-86
2022/02/19 01:22:46;;;;;;;6.75;2.15;;;8.10;58.50;;;;;;4957532;29;20040;-88
2022/02/19 01:25:13;;;;;;;4.28;2.15;;;8.10;59.00;;;;;;4956653;29;20043;-85
2022/02/19 01:27:49;;;;;;;4.65;1.77;;;8.10;58.10;;;;;;4956273;29;20424;-83
2022/02/19 01:30:17;;;;;;;6.32;2.22;;;8.10;57.10;;;;;;4954807;29;20047;-85
2022/02/19 01:32:44;;;;;;;6.05;2.35;;;8.20;56.70;;;;;;4956170;29;20043;-86
2022/02/19 01:35:11;;;;;;;9.23;2.28;;;8.10;57.20;;;;;;4957660;29;20035;-84
2022/02/19 01:37:38;;;;;;;5.80;2.53;;;8.10;56.80;;;;;;4955486;29;20043;-85
2022/02/19 01:40:05;;;;;;;11.85;2.53;;;8.20;57.20;;;;;;4958103;29;20371;-85
2022/02/19 01:42:32;;;;;;;11.50;2.00;;;8.10;57.20;;;;;;4955434;29;20054;-84
2022/02/19 01:44:59;;;;;;;3.90;1.50;;;8.00;57.60;;;;;;4958041;29;20038;-85
2022/02/19 01:47:25;;;;;;;6.78;2.13;;;7.90;57.90;;;;;;4955400;29;20362;-85
2022/02/19 01:49:51;;;;;;;18.02;2.83;;;7.80;58.40;;;;;;4957380;29;20043;-86
2022/02/19 01:52:18;;;;;;;8.52;2.17;;;7.70;58.70;;;;;;4954740;29;20057;-83
2022/02/19 01:54:46;;;;;;;6.07;2.20;;;7.80;58.40;;;;;;4956171;28;20039;-85
2022/02/19 01:57:28;;;;;;;5.53;2.08;;;7.80;58.10;;;;;;4956301;29;20031;-86
2022/02/19 02:00:15;;;;;;;6.15;2.35;;;7.90;57.90;;;;;;4955204;29;20583;-83
2022/02/19 02:02:46;;;;;;;5.90;2.50;;;7.90;56.90;;;;;;4954959;29;20055;-83
2022/02/19 02:05:38;;;;;;;9.52;2.38;;;7.90;57.90;;;;;;4953636;29;20066;-82
2022/02/19 02:08:07;;;;;;;5.07;1.77;;;7.80;57.30;;;;;;4955046;29;20515;-84
2022/02/19 02:10:35;;;;;;;3.88;1.58;;;7.80;57.10;;;;;;4955909;29;20035;-84
2022/02/19 02:13:07;;;;;;;7.45;2.25;;;7.80;57.40;;;;;;4955142;29;20072;-86
2022/02/19 02:15:35;;;;;;;3.60;1.98;;;7.80;57.00;;;;;;4954136;29;20074;-85
2022/02/19 02:18:09;;;;;;;3.78;1.70;;;7.80;57.40;;;;;;4954749;29;20039;-81
2022/02/19 02:20:35;;;;;;;5.35;2.05;;;7.80;57.30;;;;;;4954419;29;20051;-87
2022/02/19 02:23:03;;;;;;;8.93;2.50;;;7.80;57.70;;;;;;4954890;29;20055;-88
2022/02/19 02:25:31;;;;;;;5.13;2.05;;;7.70;58.30;;;;;;4955408;29;20039;-85
2022/02/19 02:27:59;;;;;;;5.18;1.60;;;7.70;58.40;;;;;;4955393;29;20051;-83
2022/02/19 02:30:26;;;;;;;7.40;2.08;;;7.60;57.90;;;;;;4954466;29;20045;-85
2022/02/19 02:33:08;;;;;;;10.63;2.00;;;7.60;58.00;;;;;;4969199;29;20023;-85
2022/02/19 02:35:34;;;;;;;17.95;2.75;;;7.70;58.00;;;;;;4966492;28;20058;-86
2022/02/19 02:38:01;;;;;;;4.10;2.03;;;7.60;58.20;;;;;;4964882;29;20054;-85
2022/02/19 02:40:28;;;;;;;7.47;2.60;;;7.70;57.80;;;;;;4953864;29;20485;-79
2022/02/19 02:42:55;;;;;;;8.48;2.42;;;7.70;57.70;;;;;;4938395;29;20039;-83
2022/02/19 02:45:21;;;;;;;2.75;1.60;;;7.70;57.80;;;;;;4937993;29;20052;-85
2022/02/19 02:47:49;;;;;;;7.95;2.47;;;7.60;57.70;;;;;;4956502;29;20039;-85
2022/02/19 02:50:15;;;;;;;5.90;2.30;;;7.60;56.20;;;;;;4954722;29;20039;-85
2022/02/19 02:52:42;;;;;;;5.03;2.08;;;7.60;56.70;;;;;;4955013;29;20039;-87
2022/02/19 02:55:12;;;;;;;5.05;2.42;;;7.60;56.80;;;;;;4954377;29;20384;-85
2022/02/19 02:57:39;;;;;;;4.13;1.88;;;7.60;57.00;;;;;;4953511;29;20401;-83
2022/02/19 03:00:09;;;;;;;4.50;1.73;;;7.50;57.10;;;;;;4955620;29;20096;-84
2022/02/19 03:02:40;;;;;;;7.68;2.33;;;7.60;56.40;;;;;;4955449;29;20039;-86
2022/02/19 03:05:09;;;;;;;9.88;1.98;;;7.50;56.40;;;;;;4953291;28;20062;-85
2022/02/19 03:07:36;;;;;;;4.15;1.73;;;7.50;56.80;;;;;;4953288;29;20066;-82
2022/02/19 03:10:05;;;;;;;3.60;1.92;;;7.50;56.90;;;;;;4937578;29;20035;-84
2022/02/19 03:12:35;;;;;;;7.90;2.45;;;7.40;57.00;;;;;;4952676;29;20078;-80
2022/02/19 03:15:03;;;;;;;14.02;1.80;;;7.40;57.00;;;;;;4954539;29;20043;-84
2022/02/19 03:17:35;;;;;;;7.90;2.22;;;7.30;57.40;;;;;;4952719;29;20422;-82
2022/02/19 03:20:03;;;;;;;12.10;4.78;;;7.30;57.30;;;;;;4953789;29;20035;-84
2022/02/19 03:22:30;;;;;;;8.18;2.28;;;7.20;57.20;;;;;;4952737;29;20054;-86
2022/02/19 03:24:56;;;;;;;4.63;1.75;;;7.10;57.60;;;;;;4953191;29;20145;-85
2022/02/19 03:27:23;;;;;;;14.90;3.08;;;7.10;57.90;;;;;;4953109;29;20027;-84
2022/02/19 03:29:50;;;;;;;6.13;2.22;;;7.00;58.40;;;;;;4953445;29;20066;-85
2022/02/19 03:32:16;;;;;;;7.03;2.63;;;7.00;58.40;;;;;;4953202;29;20039;-84
2022/02/19 03:34:43;;;;;;;9.80;2.83;;;7.00;58.70;;;;;;4954035;29;20555;-85
2022/02/19 03:37:09;;;;;;;4.50;1.85;;;7.10;58.40;;;;;;4954769;29;20036;-85
2022/02/19 03:39:36;;;;;;;6.93;2.50;;;7.10;58.50;;;;;;4952600;29;20050;-84
2022/02/19 03:42:03;;;;;;;4.20;1.95;;;7.10;58.40;;;;;;4953141;29;20051;-87
2022/02/19 03:44:29;;;;;;;5.90;2.25;;;7.10;58.80;;;;;;4953765;29;20098;-82
2022/02/19 03:47:04;;;;;;;5.00;2.15;;;7.10;58.70;;;;;;4952457;29;20469;-83
2022/02/19 03:49:46;;;;;;;2.95;1.73;;;7.10;58.50;;;;;;4952737;29;20392;-87
2022/02/19 03:52:13;;;;;;;12.07;3.50;;;7.10;58.50;;;;;;4953027;29;20060;-87
2022/02/19 03:54:40;;;;;;;8.07;2.47;;;7.10;58.70;;;;;;4953024;28;20054;-87
2022/02/19 03:57:06;;;;;;;4.63;1.75;;;7.10;58.30;;;;;;4952977;29;20047;-83
2022/02/19 03:59:32;;;;;;;5.35;1.85;;;7.10;57.80;;;;;;4936128;29;20039;-83
2022/02/19 04:02:01;;;;;;;7.13;2.58;;;7.10;58.00;;;;;;4952703;29;20051;-87
2022/02/19 04:04:32;;;;;;;7.18;4.25;;;7.00;58.40;;;;;;4953847;29;20047;-86
2022/02/19 04:06:58;;;;;;;8.43;1.65;;;6.90;58.60;;;;;;4958498;29;20031;-83
2022/02/19 04:09:54;;;;;;;2.97;1.58;;;6.80;58.20;;;;;;4955512;28;20038;-83
2022/02/19 04:12:22;;;;;;;6.07;1.80;;;6.90;58.80;;;;;;4944190;29;20113;-86
2022/02/19 04:14:52;;;;;;;8.93;2.25;;;6.90;59.30;;;;;;4956378;29;20054;-83
2022/02/19 04:17:22;;;;;;;10.23;2.33;;;6.90;59.60;;;;;;4940272;29;20392;-85
2022/02/19 04:19:50;;;;;;;14.85;1.52;;;6.80;60.00;;;;;;4956552;29;20046;-87
2022/02/19 04:22:17;;;;;;;3.08;2.00;;;6.80;60.30;;;;;;4957279;29;20043;-86
2022/02/19 04:24:45;;;;;;;5.05;2.13;;;6.80;60.10;;;;;;4956030;29;20044;-87
2022/02/19 04:27:20;;;;;;;6.72;2.38;;;6.80;60.20;;;;;;4958555;29;20458;-83
2022/02/19 04:29:47;;;;;;;3.78;2.05;;;6.70;60.00;;;;;;4955957;29;20051;-87
2022/02/19 04:32:13;;;;;;;8.93;1.77;;;6.60;60.50;;;;;;4957143;29;20167;-84
2022/02/19 04:34:50;;;;;;;6.90;1.55;;;6.60;59.90;;;;;;4956165;29;20046;-83
2022/02/19 04:37:16;;;;;;;5.13;2.17;;;6.50;60.20;;;;;;4957188;29;20043;-85
2022/02/19 04:39:42;;;;;;;4.75;1.33;;;6.50;60.30;;;;;;4956140;29;20048;-82
2022/02/19 04:42:17;;;;;;;3.00;1.77;;;6.50;60.60;;;;;;4962370;29;20051;-81
2022/02/19 04:44:43;;;;;;;4.78;1.80;;;6.50;60.50;;;;;;4963400;29;20051;-85
2022/02/19 04:47:10;;;;;;;4.85;1.73;;;6.50;60.70;;;;;;4966897;29;20054;-82
2022/02/19 04:49:36;;;;;;;4.03;1.48;;;6.40;61.10;;;;;;4963902;29;20381;-82
2022/02/19 04:52:03;;;;;;;5.75;1.67;;;6.30;61.30;;;;;;4972202;29;20031;-83
2022/02/19 04:54:32;;;;;;;4.03;1.50;;;6.40;61.10;;;;;;4961394;29;20043;-86
2022/02/19 04:56:58;;;;;;;5.55;1.67;;;6.40;61.00;;;;;;4960802;29;20047;-80
2022/02/19 04:59:27;;;;;;;8.90;2.03;;;6.30;60.90;;;;;;4958161;29;20036;-84
2022/02/19 05:01:53;;;;;;;6.65;1.75;;;6.30;60.40;;;;;;4956923;29;20047;-85
2022/02/19 05:04:25;;;;;;;6.93;2.03;;;6.20;61.50;;;;;;4956784;29;20047;-83
2022/02/19 05:06:58;;;;;;;5.13;1.73;;;6.10;61.70;;;;;;4956572;29;20042;-82
2022/02/19 05:09:24;;;;;;;4.25;1.98;;;6.20;62.00;;;;;;4963903;29;20042;-82
2022/02/19 05:12:16;;;;;;;13.52;1.95;;;6.10;61.90;;;;;;4957949;29;20467;-86
2022/02/19 05:14:45;;;;;;;3.30;1.45;;;6.10;61.60;;;;;;4955621;29;20060;-83
2022/02/19 05:17:21;;;;;;;4.50;1.63;;;6.10;61.50;;;;;;4941932;29;20046;-83
2022/02/19 05:19:52;;;;;;;12.80;2.17;;;6.10;61.50;;;;;;4955972;29;20054;-84
2022/02/19 05:22:19;;;;;;;7.53;1.98;;;6.10;61.60;;;;;;4956228;29;20043;-83
2022/02/19 05:24:49;;;;;;;3.83;1.88;;;6.00;62.40;;;;;;4957492;29;20050;-81
2022/02/19 05:27:19;;;;;;;5.10;2.03;;;5.90;61.90;;;;;;4972858;28;20469;-84
2022/02/19 05:29:47;;;;;;;5.88;1.88;;;5.90;61.60;;;;;;4974396;28;20027;-83
2022/02/19 05:32:15;;;;;;;3.55;1.95;;;5.90;62.10;;;;;;4972590;29;20054;-86
2022/02/19 05:34:44;;;;;;;7.72;2.45;;;5.80;62.10;;;;;;4958347;29;20055;-82
2022/02/19 05:37:11;;;;;;;8.32;1.70;;;5.90;61.90;;;;;;4957182;29;20046;-84
2022/02/19 05:39:47;;;;;;;9.57;2.35;;;5.90;62.20;;;;;;4956212;29;20476;-84
2022/02/19 05:42:14;;;;;;;2.92;1.65;;;5.80;62.60;;;;;;4956531;29;20640;-81
2022/02/19 05:44:43;;;;;;;5.28;1.92;;;5.90;62.80;;;;;;4958607;29;20050;-82
2022/02/19 05:47:09;;;;;;;3.58;1.90;;;5.80;62.90;;;;;;4958208;29;20054;-85
2022/02/19 05:49:41;;;;;;;8.27;1.98;;;5.70;63.20;;;;;;4955636;29;20047;-85
2022/02/19 05:52:15;;;;;;;5.45;1.60;;;5.60;63.50;;;;;;4955780;29;20396;-82
2022/02/19 05:54:56;;;;;;;3.38;1.50;;;5.60;64.10;;;;;;4957460;29;20035;-80
2022/02/19 05:57:26;;;;;;;8.02;2.53;;;5.80;63.60;;;;;;4955462;29;20045;-84
2022/02/19 05:59:53;;;;;;;7.40;2.33;;;5.70;63.40;;;;;;4954939;29;20039;-84
2022/02/19 06:02:20;;;;;;;5.35;2.30;;;5.80;63.90;;;;;;4955751;29;20517;-84
2022/02/19 06:04:46;;;;;;;6.00;2.28;;;5.70;64.20;;;;;;4954407;29;20046;-85
2022/02/19 06:07:13;;;;;;;8.45;2.58;;;5.60;64.40;;;;;;4940094;29;20047;-85
2022/02/19 06:09:39;;;;;;;3.90;1.83;;;5.60;64.30;;;;;;4955037;29;20043;-85
2022/02/19 06:12:08;;;;;;;4.10;1.67;;;5.70;64.20;;;;;;4955425;29;20039;-83
2022/02/19 06:14:46;;;;;;;6.32;1.63;;;5.70;64.00;;;;;;4939545;29;20055;-82
2022/02/19 06:17:14;;;;;;;16.00;1.73;;;5.60;64.30;;;;;;4955284;29;20043;-83
2022/02/19 06:19:41;;;;;;;7.82;2.30;;;5.70;64.50;;;;;;4954849;29;20047;-84
2022/02/19 06:22:10;;;;;;;8.73;2.28;;;5.60;64.50;;;;;;4954883;29;20074;-84
2022/02/19 06:24:38;;;;;;;11.50;1.88;;;5.60;64.60;;;;;;4954429;29;20428;-86
2022/02/19 06:27:05;;;;;;;5.88;2.25;;;5.70;64.50;;;;;;4955284;29;20047;-83
2022/02/19 06:29:37;;;;;;;7.55;2.10;;;5.70;64.40;;;;;;4955690;29;20043;-85
2022/02/19 06:32:04;;;;;;;4.40;1.60;;;5.70;64.50;;;;;;4955216;29;20047;-85
2022/02/19 06:34:30;;;;;;;4.80;1.88;;;5.60;64.50;;;;;;4955110;29;20393;-86
2022/02/19 06:36:58;;;;;;;7.35;2.08;;;5.60;64.90;;;;;;4954120;29;20050;-85
2022/02/19 06:39:27;;;;;;;4.55;1.88;;;5.60;65.00;;;;;;4954704;28;20054;-88
2022/02/19 06:41:54;;;;;;;6.47;1.73;;;5.60;64.90;;;;;;4954391;29;20400;-87
2022/02/19 06:44:52;;;;;;;5.10;1.88;;;5.60;64.70;;;;;;4948965;28;20042;-86
2022/02/19 06:47:19;;;;;;;3.97;1.45;;;5.60;64.90;;;;;;4956700;29;20031;-86
2022/02/19 06:49:45;;;;;;;5.25;1.70;;;5.60;64.90;;;;;;4955092;29;20050;-84
2022/02/19 06:52:12;;;;;;;4.78;1.45;;;5.60;64.70;;;;;;4955522;29;20051;-85
2022/02/19 06:54:39;;;;;;;10.15;2.42;;;5.70;65.00;;;;;;4954586;29;20043;-87
2022/02/19 06:57:10;;;;;;;8.05;2.58;;;5.70;64.90;;;;;;4956299;29;20055;-85
2022/02/19 06:59:36;;;;;;;7.65;2.20;;;5.70;64.50;;;;;;4954682;29;20050;-84
2022/02/19 07:02:05;;;;;;;8.90;1.70;;;5.60;64.60;;;;;;4955093;29;20039;-87
2022/02/19 07:04:32;;;;;;;5.25;2.15;;;5.60;65.30;;;;;;4955845;29;20039;-85
2022/02/19 07:07:17;;;;;;;6.60;2.40;;;5.60;65.30;;;;;;4956583;29;20098;-84
2022/02/19 07:09:43;;;;;;;4.32;1.88;;;5.60;64.80;;;;;;4956178;29;20042;-86
2022/02/19 07:12:10;;;;;;;4.38;1.60;;;5.60;64.40;;;;;;4954848;29;20495;-87
2022/02/19 07:14:36;;;;;;;5.97;2.42;;;5.70;64.20;;;;;;4953832;29;20508;-84
2022/02/19 07:17:09;;;;;;;5.38;1.75;;;5.70;64.90;;;;;;4955095;29;20043;-87
2022/02/19 07:19:36;;;;;;;4.70;1.73;;;5.70;63.90;;;;;;4954939;29;20054;-77
2022/02/19 07:22:04;;;;;;;6.00;1.58;;;5.80;63.90;;;;;;4954946;29;20043;-88
2022/02/19 07:24:31;;;;;;;6.28;1.92;;;5.80;64.10;;;;;;4955642;29;20043;-87
2022/02/19 07:26:57;;;;;;;10.15;2.83;;;5.80;63.90;;;;;;4937581;29;20488;-85
2022/02/19 07:29:25;;;;;;;5.78;1.42;;;6.00;63.80;;;;;;4961758;28;20032;-89
2022/02/19 07:31:51;;;;;;;6.40;1.83;;;6.10;63.90;;;;;;4960415;29;20047;-85
2022/02/19 07:34:18;;;;;;;3.65;1.55;;;6.10;63.10;;;;;;4968454;28;20049;-84
2022/02/19 07:36:45;;;;;;;4.55;2.40;;;6.20;63.50;;;;;;4961175;29;20050;-86
2022/02/19 07:39:11;;;;;;;5.88;2.72;;;6.30;63.20;;;;;;4957410;29;20043;-86
2022/02/19 07:41:41;;;;;;;4.15;1.60;;;6.30;62.40;;;;;;4954144;29;20043;-84
2022/02/19 07:44:16;;;;;;;3.67;1.50;;;6.30;62.10;;;;;;4957282;29;20055;-87
2022/02/19 07:47:01;;;;;;;4.82;1.40;;;6.50;61.80;;;;;;4955406;29;20047;-86
2022/02/19 07:58:47;;;;;;;4.72;1.50;;;6.60;61.00;;;;;;4956065;29;20039;-84
2022/02/19 08:01:13;;;;;;;8.40;2.28;;;6.60;60.60;;;;;;4955156;29;20504;-84
2022/02/19 08:03:41;;;;;;;4.70;1.70;;;6.70;60.80;;;;;;4954751;29;20055;-84
2022/02/19 08:06:08;;;;;;;5.40;1.92;;;6.80;60.60;;;;;;4954102;29;20043;-83
2022/02/19 08:08:37;;;;;;;16.30;1.98;;;6.80;60.40;;;;;;4954608;29;20039;-82
2022/02/19 08:11:11;;;;;;;11.95;2.60;;;6.60;60.60;;;;;;4955191;29;20047;-85
2022/02/19 08:13:37;;;;;;;4.95;2.42;;;6.70;60.80;;;;;;4955427;29;20043;-83
2022/02/19 08:16:05;;;;;;;8.52;2.92;;;6.70;60.80;;;;;;4955296;29;20054;-85
2022/02/19 08:18:31;;;;;;;5.60;1.90;;;7.20;60.10;;;;;;4955657;29;20457;-82
2022/02/19 08:20:58;;;;;;;4.03;1.42;;;7.20;59.40;;;;;;4958124;29;20031;-89
2022/02/19 08:23:24;;;;;;;3.47;2.00;;;7.30;59.40;;;;;;4963995;28;20063;-86
2022/02/19 08:25:51;;;;;;;7.72;2.60;;;7.40;60.00;;;;;;4953188;29;20054;-84
2022/02/19 08:28:17;;;;;;;4.93;2.42;;;7.60;59.30;;;;;;4955236;29;20039;-86
2022/02/19 08:30:45;;;;;;;4.18;1.83;;;7.10;58.90;;;;;;4954425;29;20027;-87
2022/02/19 08:33:12;;;;;;;3.70;1.48;;;7.40;59.70;;;;;;4955082;29;20449;-89
2022/02/19 08:35:40;;;;;;;4.93;1.95;;;7.80;58.00;;;;;;4953751;29;20027;-89
2022/02/19 08:38:07;;;;;;;9.85;1.83;;;8.00;57.20;;;;;;4954637;29;20457;-89
2022/02/19 08:40:34;;;;;;;6.00;1.85;;;7.50;58.50;;;;;;4957568;29;20027;-88
2022/02/19 08:43:01;;;;;;;5.82;1.77;;;7.70;57.70;;;;;;4953987;29;20275;-91
2022/02/19 08:45:27;;;;;;;9.48;2.17;;;8.20;56.90;;;;;;4954303;28;20043;-87
2022/02/19 08:48:01;;;;;;;4.18;2.03;;;8.10;57.10;;;;;;4953891;29;20038;-90
2022/02/19 08:50:29;;;;;;;4.28;1.25;;;7.60;57.30;;;;;;4955153;29;20031;-90
2022/02/19 08:52:55;;;;;;;3.80;1.65;;;8.30;57.00;;;;;;4953767;29;20026;-87
2022/02/19 08:55:22;;;;;;;3.15;1.55;;;8.90;54.80;;;;;;4954354;29;20050;-88
2022/02/19 08:57:48;;;;;;;5.82;1.55;;;8.80;54.50;;;;;;4953848;29;20027;-90
2022/02/19 09:00:15;;;;;;;9.18;1.90;;;8.80;54.20;;;;;;4954487;29;20445;-83
2022/02/19 09:02:41;;;;;;;9.23;1.25;;;8.20;55.70;;;;;;4955207;28;20050;-87
2022/02/19 09:05:10;;;;;;;3.80;1.65;;;8.00;55.60;;;;;;4958433;29;20023;-85
2022/02/19 09:07:37;;;;;;;4.13;1.45;;;8.10;55.80;;;;;;4957999;29;20031;-88
2022/02/19 09:10:04;;;;;;;5.97;1.60;;;7.90;56.30;;;;;;4957848;29;20116;-90
2022/02/19 09:12:31;;;;;;;2.95;1.10;;;7.90;55.60;;;;;;4958674;29;20060;-89
2022/02/19 09:14:57;;;;;;;9.18;1.80;;;8.20;55.40;;;;;;4957646;29;20330;-84
2022/02/19 09:17:24;;;;;;;3.67;1.38;;;8.30;55.50;;;;;;4958414;29;20453;-88
2022/02/19 09:19:50;;;;;;;7.82;2.15;;;8.10;55.50;;;;;;4955954;29;20035;-84
2022/02/19 09:22:16;;;;;;;3.53;1.77;;;7.70;57.20;;;;;;4957727;29;20031;-81
2022/02/19 09:24:42;;;;;;;8.48;1.73;;;7.80;57.30;;;;;;4957952;28;20373;-85
2022/02/19 09:27:09;;;;;;;4.72;1.52;;;8.00;57.10;;;;;;4960474;29;20043;-87
2022/02/19 09:29:35;;;;;;;3.63;1.30;;;8.10;56.30;;;;;;4957642;29;20441;-86
2022/02/19 09:32:01;;;;;;;6.00;1.50;;;8.00;56.50;;;;;;4955297;29;20042;-86
2022/02/19 09:34:28;;;;;;;6.07;1.48;;;7.90;56.40;;;;;;4956784;29;20027;-88
2022/02/19 09:36:54;;;;;;;2.40;1.42;;;8.30;57.00;;;;;;4955797;29;20035;-83
2022/02/19 09:39:20;;;;;;;7.82;2.17;;;8.40;55.60;;;;;;4947274;29;20428;-86
2022/02/19 09:41:48;;;;;;;4.63;1.88;;;8.00;56.10;;;;;;4967667;28;20152;-90
2022/02/19 09:44:14;;;;;;;3.85;1.77;;;8.00;57.10;;;;;;4959306;29;20050;-90
2022/02/19 09:46:41;;;;;;;6.93;1.95;;;8.10;56.80;;;;;;4957918;29;20472;-76
2022/02/19 09:49:08;;;;;;;4.97;1.90;;;7.70;56.50;;;;;;4963031;29;20043;-92
2022/02/19 09:51:36;;;;;;;5.03;1.70;;;7.40;57.20;;;;;;4964580;29;20032;-86
2022/02/19 09:54:02;;;;;;;6.75;2.45;;;7.30;57.90;;;;;;4961421;29;20039;-87
2022/02/19 09:56:29;;;;;;;2.90;1.10;;;7.10;58.60;;;;;;4956881;29;20047;-86
2022/02/19 09:58:58;;;;;;;3.35;1.63;;;7.20;58.70;;;;;;4957071;29;20039;-95
2022/02/19 10:01:25;;;;;;;6.13;1.48;;;7.00;58.80;;;;;;4955061;29;20038;-88
2022/02/19 10:03:57;;;;;;;8.55;2.33;;;7.10;59.20;;;;;;4956383;29;20350;-89
2022/02/19 10:06:32;;;;;;;10.90;2.67;;;7.20;59.20;;;;;;4955043;29;20049;-86
2022/02/19 10:09:12;;;;;;;4.85;1.88;;;7.20;58.60;;;;;;4939177;29;20035;-87
2022/02/19 10:11:39;;;;;;;3.67;1.98;;;7.10;58.30;;;;;;4956241;29;20487;-77
2022/02/19 10:14:30;;;;;;;5.82;2.00;;;7.20;58.00;;;;;;4955276;28;20243;-87
2022/02/19 10:17:07;;;;;;;;;;;7.20;58.40;;;;;;4956712;29;20054;-86
2022/02/19 10:20:04;;;;;;;6.03;1.83;;;7.30;58.50;;;;;;4955827;29;19916;-84
2022/02/19 10:22:33;;;;;;;4.22;1.63;;;7.40;59.10;;;;;;4956387;29;20038;-87
2022/02/19 10:25:05;;;;;;;5.45;2.13;;;7.40;58.10;;;;;;4954047;29;20047;-86
2022/02/19 10:27:45;;;;;;;8.82;1.70;;;7.60;58.80;;;;;;4957516;29;20484;-90
2022/02/19 10:30:22;;;;;;;5.75;2.17;;;7.70;57.90;;;;;;4955387;29;20035;-85
2022/02/19 10:32:52;;;;;;;3.90;1.92;;;7.90;57.80;;;;;;4957508;29;20031;-84
2022/02/19 10:35:26;;;;;;;6.38;2.30;;;7.70;57.80;;;;;;4955957;29;20134;-84
2022/02/19 10:37:53;;;;;;;9.35;2.33;;;7.70;57.90;;;;;;4954336;29;20047;-86
2022/02/19 10:40:47;;;;;;;3.08;1.63;;;7.70;57.10;;;;;;4956014;29;20031;-84
2022/02/19 10:43:20;;;;;;;5.00;1.85;;;7.90;57.20;;;;;;4944465;29;20047;-84
2022/02/19 10:45:57;;;;;;;5.35;1.98;;;7.80;56.00;;;;;;4955393;29;20050;-84
2022/02/19 10:48:44;;;;;;;2.78;1.45;;;7.70;56.80;;;;;;4955545;28;20035;-84
2022/02/19 10:51:12;;;;;;;2.88;1.35;;;7.80;57.40;;;;;;4955813;29;20036;-85
2022/02/19 10:53:40;;;;;;;7.90;1.42;;;7.80;56.70;;;;;;4962515;29;20041;-84
2022/02/19 10:56:17;;;;;;;3.25;1.63;;;8.10;56.20;;;;;;4965503;29;20019;-83
2022/02/19 10:59:00;;;;;;;4.95;1.65;;;8.10;55.70;;;;;;4963037;29;20045;-84
2022/02/19 11:01:49;;;;;;;5.63;2.05;;;8.10;55.90;;;;;;4957041;29;20038;-83
2022/02/19 11:04:18;;;;;;;3.35;1.65;;;8.10;56.20;;;;;;4956304;29;20043;-85
2022/02/19 11:06:45;;;;;;;3.72;2.08;;;8.10;57.10;;;;;;4955666;29;20031;-83
2022/02/19 11:09:12;;;;;;;4.40;2.08;;;7.90;56.00;;;;;;4954726;29;20050;-84
2022/02/19 11:11:41;;;;;;;4.35;1.33;;;7.70;57.30;;;;;;4954953;29;20027;-83
2022/02/19 11:14:09;;;;;;;5.07;2.05;;;8.00;57.80;;;;;;4954784;29;20023;-84
2022/02/19 11:16:36;;;;;;;4.45;1.30;;;8.10;57.10;;;;;;4955576;29;20354;-84
2022/02/19 11:19:04;;;;;;;4.35;1.67;;;8.20;57.40;;;;;;4953291;29;20050;-84
2022/02/19 11:21:31;;;;;;;15.45;2.25;;;8.20;57.40;;;;;;4954920;29;20031;-84
2022/02/19 11:24:04;;;;;;;3.03;1.63;;;8.10;57.20;;;;;;4954283;29;20042;-85
2022/02/19 11:26:31;;;;;;;4.57;1.27;;;8.40;57.40;;;;;;4954004;28;20027;-83
2022/02/19 11:29:02;;;;;;;7.35;1.95;;;8.60;55.40;;;;;;4953854;29;20383;-85
2022/02/19 11:31:30;;;;;;;3.30;1.80;;;8.70;55.70;;;;;;4955126;29;20035;-85
2022/02/19 11:34:04;;;;;;;5.10;1.67;;;9.00;56.10;;;;;;4954486;29;20043;-84
2022/02/19 11:36:31;;;;;;;2.72;1.98;;;9.10;55.00;;;;;;4954598;29;20059;-86
2022/02/19 11:38:58;;;;;;;3.78;1.45;;;8.90;55.10;;;;;;4954121;29;20042;-85
2022/02/19 11:41:45;;;;;;;5.50;1.67;;;8.90;55.50;;;;;;4953348;29;20035;-83
2022/02/19 11:44:24;;;;;;;5.22;1.17;;;8.70;55.40;;;;;;4954000;29;20055;-84
2022/02/19 11:46:52;;;;;;;3.47;1.60;;;8.80;55.50;;;;;;4953420;29;20051;-83
2022/02/19 11:49:24;;;;;;;3.08;1.85;;;9.00;55.50;;;;;;4954248;29;20038;-85
2022/02/19 11:52:16;;;;;;;7.95;1.75;;;9.10;55.20;;;;;;4954146;29;20404;-85
2022/02/19 11:54:42;;;;;;;3.17;1.48;;;9.40;54.50;;;;;;4953467;29;20385;-87
2022/02/19 11:57:14;;;;;;;2.22;1.05;;;9.60;54.50;;;;;;4952629;29;20064;-89
2022/02/19 11:59:49;;;;;;;2.80;1.27;;;9.50;53.00;;;;;;4954364;29;20047;-88
2022/02/19 12:02:16;;;;;;;5.50;1.48;;;9.50;52.80;;;;;;4952705;29;20047;-89
2022/02/19 12:04:42;;;;;;;4.32;1.33;;;9.60;52.50;;;;;;4953772;29;20039;-89
2022/02/19 12:07:09;;;;;;;5.65;1.52;;;9.50;53.00;;;;;;4952970;29;20047;-83
2022/02/19 12:10:01;;;;;;;11.60;1.60;;;9.60;53.30;;;;;;4953317;29;20039;-88
2022/02/19 12:12:27;;;;;;;3.60;1.27;;;9.30;53.60;;;;;;4953681;29;20040;-90
2022/02/19 12:14:57;;;;;;;6.82;1.80;;;9.10;53.80;;;;;;4953906;29;20070;-85
2022/02/19 12:17:42;;;;;;;3.80;1.77;;;9.10;54.20;;;;;;4954512;29;20397;-88
2022/02/19 12:20:20;;;;;;;2.38;1.33;;;9.30;53.80;;;;;;4952501;29;20035;-84
2022/02/19 12:22:53;;;;;;;3.42;1.35;;;9.40;52.60;;;;;;4953174;29;20492;-90
2022/02/19 12:25:20;;;;;;;2.55;1.17;;;9.40;53.10;;;;;;4952449;29;20027;-84
2022/02/19 12:28:19;;;;;;;4.80;1.83;;;9.40;52.70;;;;;;4940818;29;20424;-90
2022/02/19 12:30:46;;;;;;;8.55;2.03;;;9.10;53.60;;;;;;4947562;29;20027;-86
2022/02/19 12:33:13;;;;;;;9.85;2.08;;;9.20;54.30;;;;;;4941688;29;20385;-86
2022/02/19 12:35:45;;;;;;;4.18;1.85;;;9.10;54.00;;;;;;4939972;29;20040;-87
2022/02/19 12:38:13;;;;;;;3.60;1.52;;;8.80;54.60;;;;;;4956522;28;20023;-86
2022/02/19 12:40:40;;;;;;;2.90;1.85;;;8.80;54.40;;;;;;4958454;29;20361;-85
2022/02/19 12:43:13;;;;;;;5.45;1.88;;;9.00;54.80;;;;;;4970142;28;20047;-89
2022/02/19 12:45:39;;;;;;;2.17;1.25;;;8.90;53.40;;;;;;4958904;29;20507;-87
2022/02/19 12:48:06;;;;;;;8.27;2.03;;;8.90;54.20;;;;;;4958772;29;20210;-84
2022/02/19 12:50:32;;;;;;;2.83;1.50;;;9.10;52.60;;;;;;4958348;29;20019;-86
2022/02/19 12:52:58;;;;;;;3.08;2.47;;;9.40;52.30;;;;;;4958219;29;20031;-84
2022/02/19 12:55:24;;;;;;;6.97;1.55;;;9.80;51.60;;;;;;4957537;29;20035;-83
2022/02/19 12:57:52;;;;;;;7.07;1.38;;;10.00;50.50;;;;;;4939819;29;20066;-84
2022/02/19 13:00:22;;;;;;;7.55;1.73;;;10.00;50.60;;;;;;4955134;29;20035;-86
2022/02/19 13:03:00;;;;;;;1.83;1.10;;;9.80;51.00;;;;;;4957445;29;20031;-86
2022/02/19 13:05:27;;;;;;;1.25;0.75;;;9.70;51.40;;;;;;4955242;29;20051;-84
2022/02/19 13:07:55;;;;;;;1.80;1.02;;;9.70;51.70;;;;;;4952091;28;20397;-85
2022/02/19 13:10:23;;;;;;;3.20;1.25;;;9.80;50.70;;;;;;4922005;29;20040;-84
2022/02/19 13:12:50;;;;;;;2.78;1.23;;;10.00;50.80;;;;;;4937264;29;20036;-86
2022/02/19 13:15:16;;;;;;;2.30;1.63;;;10.00;50.00;;;;;;4935622;29;20063;-85
2022/02/19 13:17:42;;;;;;;7.18;1.40;;;9.80;50.80;;;;;;4938286;29;20048;-84